Time;durP1;ratioP1;P1;durP2;ratioP2;P2;SDS_P1;SDS_P2;PMS_P1;PMS_P2;Temp;Humidity;BMP_temperature;BMP_pressure;BME280_temperature;BME280_humidity;BME280_pressure;Samples;Min_cycle;Max_cycle;Signal;HPM_P1;HPM_P2
2023/09/16 00:01:44;;;;;;;48.13;46.40;;;19.20;99.90;;;;;;5054949;28;20208;-65
2023/09/16 00:04:11;;;;;;;45.73;44.13;;;19.10;99.90;;;;;;5070270;28;20200;-63
2023/09/16 00:06:38;;;;;;;45.70;44.10;;;19.10;99.90;;;;;;5055209;28;20233;-64
2023/09/16 00:09:06;;;;;;;42.87;41.37;;;19.10;99.90;;;;;;5064311;28;20629;-64
2023/09/16 00:11:33;;;;;;;46.37;44.67;;;19.10;99.90;;;;;;5063684;28;20204;-64
2023/09/16 00:14:00;;;;;;;44.87;43.27;;;19.10;99.90;;;;;;5057162;28;20214;-64
2023/09/16 00:16:29;;;;;;;45.83;44.23;;;19.10;99.90;;;;;;5068002;28;20228;-64
2023/09/16 00:18:56;;;;;;;51.20;49.37;;;19.10;99.90;;;;;;5056006;28;20287;-64
2023/09/16 00:21:23;;;;;;;45.90;44.30;;;19.10;99.90;;;;;;5062207;28;20258;-64
2023/09/16 00:23:50;;;;;;;49.17;47.37;;;19.10;99.90;;;;;;5069367;28;20599;-65
2023/09/16 00:26:18;;;;;;;42.00;40.50;;;19.00;99.90;;;;;;5072052;28;20205;-63
2023/09/16 00:28:45;;;;;;;42.60;41.10;;;19.00;99.90;;;;;;5057252;28;20259;-65
2023/09/16 00:31:12;;;;;;;41.10;39.67;;;18.90;99.90;;;;;;5066415;28;20697;-65
2023/09/16 00:33:39;;;;;;;46.23;44.63;;;18.80;99.90;;;;;;5071989;28;20666;-63
2023/09/16 00:36:06;;;;;;;46.03;44.27;;;18.80;99.90;;;;;;5071986;28;20211;-65
2023/09/16 00:38:32;;;;;;;45.77;44.17;;;18.80;99.90;;;;;;5073340;28;20231;-63
2023/09/16 00:41:00;;;;;;;43.20;41.70;;;18.80;99.90;;;;;;5074058;28;20298;-64
2023/09/16 00:43:28;;;;;;;38.03;36.70;;;18.80;99.90;;;;;;5079877;28;20302;-64
2023/09/16 00:45:55;;;;;;;41.00;39.57;;;18.80;99.90;;;;;;5078448;28;20660;-64
2023/09/16 00:48:22;;;;;;;45.07;43.47;;;18.80;99.90;;;;;;5069595;28;20241;-64
2023/09/16 00:50:49;;;;;;;41.47;40.00;;;18.80;99.90;;;;;;5073917;28;20238;-64
2023/09/16 00:53:16;;;;;;;42.67;41.17;;;18.80;99.90;;;;;;5074255;28;20211;-64
2023/09/16 00:55:46;;;;;;;38.13;36.80;;;18.80;99.90;;;;;;5074153;28;20211;-63
2023/09/16 00:58:17;;;;;;;41.50;40.03;;;18.70;99.90;;;;;;5073345;28;20230;-64
2023/09/16 01:00:46;;;;;;;36.40;35.10;;;18.80;99.90;;;;;;5072746;28;20731;-64
2023/09/16 01:03:14;;;;;;;41.50;40.03;;;18.70;99.90;;;;;;5069552;28;20218;-63
2023/09/16 01:05:41;;;;;;;43.63;42.03;;;18.70;99.90;;;;;;5071839;28;20647;-65
2023/09/16 01:08:10;;;;;;;34.17;32.93;;;18.70;99.90;;;;;;5071473;28;20247;-65
2023/09/16 01:10:40;;;;;;;39.17;37.77;;;18.70;99.90;;;;;;5072380;28;20207;-64
2023/09/16 01:13:07;;;;;;;38.93;37.53;;;18.60;99.90;;;;;;5069975;28;20280;-65
2023/09/16 01:15:41;;;;;;;41.03;39.57;;;18.60;99.90;;;;;;5070763;28;20217;-63
2023/09/16 01:18:19;;;;;;;43.77;42.17;;;18.60;99.90;;;;;;5070392;28;20234;-64
2023/09/16 01:20:46;;;;;;;39.63;38.22;;;18.60;99.90;;;;;;5071320;28;20719;-63
2023/09/16 01:23:18;;;;;;;42.83;41.33;;;18.50;99.90;;;;;;5071566;28;20249;-64
2023/09/16 01:25:46;;;;;;;40.90;39.43;;;18.50;99.90;;;;;;5071378;28;20223;-64
2023/09/16 01:28:13;;;;;;;40.47;39.00;;;18.40;99.90;;;;;;5062344;28;20700;-64
2023/09/16 01:30:45;;;;;;;39.37;37.97;;;18.40;99.90;;;;;;5067071;28;20217;-63
2023/09/16 01:33:20;;;;;;;37.27;35.97;;;18.30;99.90;;;;;;5070439;28;20211;-63
2023/09/16 01:35:49;;;;;;;38.73;37.37;;;18.30;99.90;;;;;;5066458;28;20778;-64
2023/09/16 01:38:20;;;;;;;36.40;35.10;;;18.30;99.90;;;;;;5083894;28;20268;-63
2023/09/16 01:40:51;;;;;;;33.70;32.50;;;18.30;99.90;;;;;;5064491;28;20247;-65
2023/09/16 01:43:19;;;;;;;33.77;32.57;;;18.20;99.90;;;;;;5071677;28;20260;-64
2023/09/16 01:45:46;;;;;;;38.77;37.40;;;18.20;99.90;;;;;;5070117;28;20309;-64
2023/09/16 01:48:14;;;;;;;34.20;33.00;;;18.20;99.90;;;;;;5070413;28;20619;-64
2023/09/16 01:50:41;;;;;;;39.77;38.37;;;18.20;99.90;;;;;;5071722;28;20302;-65
2023/09/16 01:53:08;;;;;;;41.53;40.07;;;18.20;99.90;;;;;;5069353;28;20207;-64
2023/09/16 01:55:35;;;;;;;37.80;36.43;;;18.20;99.90;;;;;;5070673;28;20204;-63
2023/09/16 01:58:04;;;;;;;37.93;36.63;;;18.20;99.90;;;;;;5070060;28;20238;-63
2023/09/16 02:00:30;;;;;;;38.80;37.43;;;18.20;99.90;;;;;;5070616;28;20207;-64
2023/09/16 02:02:57;;;;;;;35.90;34.63;;;18.00;99.90;;;;;;5070182;28;20207;-64
2023/09/16 02:05:24;;;;;;;32.80;31.67;;;18.20;99.90;;;;;;5070393;28;20207;-64
2023/09/16 02:07:51;;;;;;;46.83;45.13;;;18.20;99.90;;;;;;5071003;28;20337;-65
2023/09/16 02:10:18;;;;;;;37.40;36.00;;;18.10;99.90;;;;;;5071410;28;20207;-63
2023/09/16 02:12:45;;;;;;;36.93;35.63;;;18.20;99.90;;;;;;5070612;28;20207;-64
2023/09/16 02:15:13;;;;;;;38.73;37.33;;;18.10;99.90;;;;;;5070301;28;20565;-65
2023/09/16 02:17:40;;;;;;;37.20;35.90;;;18.10;99.90;;;;;;5070105;28;20227;-64
2023/09/16 02:20:11;;;;;;;37.80;36.43;;;18.10;99.90;;;;;;5070286;28;20302;-64
2023/09/16 02:22:38;;;;;;;36.07;34.77;;;18.00;99.90;;;;;;5079627;28;20215;-63
2023/09/16 02:25:05;;;;;;;31.83;30.73;;;18.00;99.90;;;;;;5078178;28;20683;-64
2023/09/16 02:27:32;;;;;;;35.93;34.63;;;18.00;99.90;;;;;;5070974;28;20212;-65
2023/09/16 02:29:59;;;;;;;39.60;38.20;;;18.00;99.90;;;;;;5071255;28;20213;-65
2023/09/16 02:32:29;;;;;;;50.37;48.27;;;18.00;99.90;;;;;;5070695;28;20203;-63
2023/09/16 02:34:55;;;;;;;35.60;34.30;;;18.00;99.90;;;;;;5070440;28;20693;-65
2023/09/16 02:37:22;;;;;;;36.73;35.40;;;18.10;99.90;;;;;;5070877;28;20760;-64
2023/09/16 02:39:49;;;;;;;35.67;34.37;;;18.00;99.90;;;;;;5074455;28;20259;-63
2023/09/16 02:42:16;;;;;;;34.43;33.23;;;18.00;99.90;;;;;;5074384;28;20207;-63
2023/09/16 02:44:42;;;;;;;37.60;36.27;;;18.00;99.90;;;;;;5074182;28;20207;-63
2023/09/16 02:47:09;;;;;;;33.47;32.30;;;18.00;99.90;;;;;;5073194;28;20203;-63
2023/09/16 02:49:37;;;;;;;36.37;35.07;;;18.00;99.90;;;;;;5074131;28;20257;-65
2023/09/16 02:52:04;;;;;;;41.03;39.57;;;18.00;99.90;;;;;;5074046;28;20584;-63
2023/09/16 02:54:31;;;;;;;38.70;37.33;;;18.00;99.90;;;;;;5075254;28;20268;-63
2023/09/16 02:56:59;;;;;;;40.47;39.07;;;18.00;99.90;;;;;;5074783;28;20245;-64
2023/09/16 02:59:26;;;;;;;39.20;37.80;;;17.90;99.90;;;;;;5073962;28;20237;-65
2023/09/16 03:01:53;;;;;;;39.17;37.73;;;17.90;99.90;;;;;;5074259;28;20229;-64
2023/09/16 03:04:19;;;;;;;38.50;37.13;;;17.90;99.90;;;;;;5073838;28;20211;-63
2023/09/16 03:06:48;;;;;;;41.60;40.10;;;17.90;99.90;;;;;;5073597;28;20293;-64
2023/09/16 03:09:17;;;;;;;38.50;37.10;;;17.90;99.90;;;;;;5073684;28;20238;-64
2023/09/16 03:11:43;;;;;;;45.83;44.17;;;17.80;99.90;;;;;;5073927;28;20785;-63
2023/09/16 03:14:10;;;;;;;34.93;33.67;;;17.80;99.90;;;;;;5073741;28;20211;-63
2023/09/16 03:16:37;;;;;;;37.27;35.93;;;17.70;99.90;;;;;;5073954;28;20214;-65
2023/09/16 03:19:04;;;;;;;36.13;34.83;;;17.70;99.90;;;;;;5073173;28;20265;-64
2023/09/16 03:21:31;;;;;;;36.63;35.33;;;17.60;99.90;;;;;;5073507;28;20211;-64
2023/09/16 03:23:59;;;;;;;37.73;36.40;;;17.70;99.90;;;;;;5072914;28;20207;-64
2023/09/16 03:26:26;;;;;;;40.20;38.77;;;17.60;99.90;;;;;;5073456;28;20217;-64
2023/09/16 03:28:54;;;;;;;41.50;40.03;;;17.60;99.90;;;;;;5073384;28;20476;-63
2023/09/16 03:31:21;;;;;;;39.00;37.60;;;17.60;99.90;;;;;;5066742;28;20207;-64
2023/09/16 03:33:48;;;;;;;38.30;36.90;;;17.60;99.90;;;;;;5072766;28;20270;-64
2023/09/16 03:36:15;;;;;;;63.13;60.23;;;17.60;99.90;;;;;;5072900;28;20211;-63
2023/09/16 03:38:46;;;;;;;45.17;43.40;;;17.60;99.90;;;;;;5072585;28;20258;-64
2023/09/16 03:41:15;;;;;;;47.97;46.23;;;17.60;99.90;;;;;;5071977;28;20211;-64
2023/09/16 03:43:43;;;;;;;44.50;42.93;;;17.60;99.90;;;;;;5072876;28;20211;-64
2023/09/16 03:46:10;;;;;;;45.20;43.57;;;17.60;99.90;;;;;;5072214;28;20207;-64
2023/09/16 03:48:36;;;;;;;46.27;44.60;;;17.60;99.90;;;;;;5073597;28;20220;-64
2023/09/16 03:51:06;;;;;;;40.17;38.77;;;17.60;99.90;;;;;;5071936;28;20215;-64
2023/09/16 03:53:34;;;;;;;37.87;36.57;;;17.60;99.90;;;;;;5072290;28;20207;-64
2023/09/16 03:56:05;;;;;;;37.77;36.40;;;17.50;99.90;;;;;;5074931;28;20217;-63
2023/09/16 03:58:33;;;;;;;37.70;36.37;;;17.50;99.90;;;;;;5078615;28;20294;-64
2023/09/16 04:01:00;;;;;;;32.50;31.40;;;17.40;99.90;;;;;;5071376;28;20215;-64
2023/09/16 04:03:27;;;;;;;35.40;34.13;;;17.30;99.90;;;;;;5071223;28;20246;-64
2023/09/16 04:05:58;;;;;;;32.10;30.97;;;17.30;99.90;;;;;;5072743;28;20564;-64
2023/09/16 04:08:25;;;;;;;31.73;30.63;;;17.20;99.90;;;;;;5066325;28;20223;-63
2023/09/16 04:10:52;;;;;;;31.63;30.53;;;17.20;99.90;;;;;;5072372;28;20578;-64
2023/09/16 04:13:19;;;;;;;40.20;38.77;;;17.20;99.90;;;;;;5071611;28;20215;-64
2023/09/16 04:15:47;;;;;;;34.47;33.27;;;17.20;99.90;;;;;;5059423;28;20216;-64
2023/09/16 04:18:14;;;;;;;34.40;33.20;;;17.20;99.90;;;;;;5071505;28;20682;-64
2023/09/16 04:20:41;;;;;;;35.40;34.10;;;17.20;99.90;;;;;;5065694;28;20556;-64
2023/09/16 04:23:08;;;;;;;33.23;32.03;;;17.20;99.90;;;;;;5066058;28;20294;-64
2023/09/16 04:25:36;;;;;;;28.93;27.93;;;17.10;99.90;;;;;;5072098;28;20661;-64
2023/09/16 04:28:03;;;;;;;33.07;31.90;;;17.10;99.90;;;;;;5070985;28;20223;-64
2023/09/16 04:30:30;;;;;;;34.57;33.33;;;17.10;99.90;;;;;;5070597;28;20219;-64
2023/09/16 04:32:58;;;;;;;38.03;36.67;;;17.10;99.90;;;;;;5070420;28;20301;-63
2023/09/16 04:35:26;;;;;;;37.97;36.57;;;17.10;99.90;;;;;;5073072;28;20337;-64
2023/09/16 04:37:53;;;;;;;43.63;42.00;;;17.20;99.90;;;;;;5074618;28;20235;-63
2023/09/16 04:40:20;;;;;;;44.43;42.83;;;17.20;99.90;;;;;;5074388;28;20214;-63
2023/09/16 04:42:47;;;;;;;76.73;73.17;;;17.20;99.90;;;;;;5075409;28;20234;-64
2023/09/16 04:45:14;;;;;;;37.83;36.53;;;17.30;99.90;;;;;;5084548;28;20239;-65
2023/09/16 04:47:43;;;;;;;34.77;33.57;;;17.30;99.90;;;;;;5080410;28;20203;-63
2023/09/16 04:50:12;;;;;;;34.97;33.77;;;17.40;99.90;;;;;;5071250;28;20207;-63
2023/09/16 04:52:39;;;;;;;35.50;34.30;;;17.40;99.90;;;;;;5073396;28;20686;-64
2023/09/16 04:55:06;;;;;;;40.73;39.33;;;17.40;99.90;;;;;;5066659;28;20210;-64
2023/09/16 04:57:34;;;;;;;37.50;36.20;;;17.40;99.90;;;;;;5070426;28;20231;-64
2023/09/16 05:00:05;;;;;;;36.13;34.83;;;17.40;99.90;;;;;;5069987;28;20211;-64
2023/09/16 05:02:33;;;;;;;40.67;39.27;;;17.40;99.90;;;;;;5071361;28;20588;-64
2023/09/16 05:05:00;;;;;;;35.17;33.87;;;17.40;99.90;;;;;;5070531;28;20292;-65
2023/09/16 05:07:29;;;;;;;45.57;43.97;;;17.40;99.90;;;;;;5066022;28;20207;-64
2023/09/16 05:09:56;;;;;;;43.60;42.00;;;17.30;99.90;;;;;;5068874;28;20583;-63
2023/09/16 05:12:23;;;;;;;44.13;42.60;;;17.30;99.90;;;;;;5071586;28;20586;-64
2023/09/16 05:14:50;;;;;;;41.43;39.97;;;17.30;99.90;;;;;;5070631;28;20217;-63
2023/09/16 05:17:17;;;;;;;47.13;45.53;;;17.30;99.90;;;;;;5070291;28;20295;-63
2023/09/16 05:19:44;;;;;;;42.80;41.30;;;17.30;99.90;;;;;;5071174;28;20247;-62
2023/09/16 05:22:11;;;;;;;39.33;37.93;;;17.20;99.90;;;;;;5069424;28;20209;-64
2023/09/16 05:24:39;;;;;;;43.30;41.80;;;17.30;99.90;;;;;;5068422;28;20282;-63
2023/09/16 05:27:06;;;;;;;40.53;39.13;;;17.30;99.90;;;;;;5064941;28;20213;-63
2023/09/16 05:29:33;;;;;;;39.57;38.13;;;17.30;99.90;;;;;;5067365;28;20233;-64
2023/09/16 05:32:00;;;;;;;39.23;37.83;;;17.20;99.90;;;;;;5080641;28;20225;-64
2023/09/16 05:34:27;;;;;;;42.57;41.00;;;17.20;99.90;;;;;;5083611;28;20294;-64
2023/09/16 05:36:53;;;;;;;42.03;40.53;;;17.20;99.90;;;;;;5088499;28;20267;-64
2023/09/16 05:39:20;;;;;;;35.43;34.23;;;17.10;99.90;;;;;;5087475;28;20231;-64
2023/09/16 05:41:49;;;;;;;59.50;56.90;;;17.10;99.90;;;;;;5088457;28;20235;-64
2023/09/16 05:44:19;;;;;;;43.63;42.03;;;17.00;99.90;;;;;;5079991;28;20251;-64
2023/09/16 05:46:47;;;;;;;37.70;36.40;;;17.00;99.90;;;;;;5079429;28;20239;-64
2023/09/16 05:49:14;;;;;;;44.47;42.87;;;17.10;99.90;;;;;;5086539;28;20231;-66
2023/09/16 05:51:42;;;;;;;37.40;36.10;;;17.10;99.90;;;;;;5082823;28;20270;-62
2023/09/16 05:54:09;;;;;;;41.00;39.53;;;17.10;99.90;;;;;;5076195;28;20208;-64
2023/09/16 05:56:38;;;;;;;43.17;41.57;;;17.20;99.90;;;;;;5073420;28;20199;-63
2023/09/16 05:59:06;;;;;;;42.43;40.93;;;17.30;99.90;;;;;;5069666;28;20258;-63
2023/09/16 06:01:33;;;;;;;42.50;41.00;;;17.30;99.90;;;;;;5072372;28;20207;-63
2023/09/16 06:04:00;;;;;;;63.00;60.13;;;17.40;99.90;;;;;;5073323;28;20207;-63
2023/09/16 06:06:27;;;;;;;34.80;33.60;;;17.40;99.90;;;;;;5070065;28;20592;-63
2023/09/16 06:08:54;;;;;;;43.13;41.60;;;17.50;99.90;;;;;;5070634;28;20223;-64
2023/09/16 06:11:22;;;;;;;41.53;39.93;;;17.50;99.90;;;;;;5071614;28;20208;-62
2023/09/16 06:13:49;;;;;;;46.93;45.23;;;17.60;99.90;;;;;;5074232;28;20217;-64
2023/09/16 06:16:17;;;;;;;42.30;40.80;;;17.70;99.90;;;;;;5079708;28;20223;-64
2023/09/16 06:18:44;;;;;;;43.23;41.70;;;17.80;99.90;;;;;;5075111;28;20233;-63
2023/09/16 06:21:11;;;;;;;37.77;36.47;;;17.90;99.90;;;;;;5075602;28;20211;-64
2023/09/16 06:23:37;;;;;;;34.73;33.50;;;18.00;99.90;;;;;;5075406;28;20294;-64
2023/09/16 06:26:04;;;;;;;39.97;38.57;;;18.10;99.90;;;;;;5073983;28;20660;-65
2023/09/16 06:28:33;;;;;;;31.97;30.83;;;18.10;99.90;;;;;;5069606;28;20329;-64
2023/09/16 06:30:59;;;;;;;35.90;34.63;;;18.10;99.90;;;;;;5074461;28;20216;-63
2023/09/16 06:33:28;;;;;;;32.60;31.47;;;18.10;99.90;;;;;;5072865;28;20314;-64
2023/09/16 06:35:55;;;;;;;32.53;31.40;;;18.20;99.90;;;;;;5072942;28;20203;-64
2023/09/16 06:38:21;;;;;;;31.60;30.50;;;18.30;99.90;;;;;;5074678;28;20304;-64
2023/09/16 06:40:48;;;;;;;32.20;31.07;;;18.30;99.90;;;;;;5074733;28;20199;-64
2023/09/16 06:43:15;;;;;;;30.40;29.33;;;18.40;99.90;;;;;;5072632;28;20207;-64
2023/09/16 06:45:42;;;;;;;26.57;25.63;;;18.50;99.90;;;;;;5077345;28;20207;-63
2023/09/16 06:48:09;;;;;;;24.07;23.07;;;18.50;99.90;;;;;;5075379;28;20234;-64
2023/09/16 06:50:38;;;;;;;23.53;22.70;;;18.60;99.90;;;;;;5075296;28;20223;-64
2023/09/16 06:53:04;;;;;;;18.67;18.07;;;18.70;99.90;;;;;;5080368;28;20226;-65
2023/09/16 06:55:31;;;;;;;25.43;24.57;;;18.90;99.90;;;;;;5076571;28;20214;-65
2023/09/16 06:57:58;;;;;;;20.47;19.77;;;18.90;99.90;;;;;;5078932;28;20243;-64
2023/09/16 07:00:25;;;;;;;19.53;18.87;;;19.00;99.90;;;;;;5072126;28;20211;-64
2023/09/16 07:02:53;;;;;;;21.80;21.07;;;19.10;99.90;;;;;;5070683;28;20207;-64
2023/09/16 07:05:20;;;;;;;19.67;18.97;;;19.20;99.90;;;;;;5073706;28;20243;-64
2023/09/16 07:07:48;;;;;;;19.93;19.23;;;19.30;99.90;;;;;;5074069;28;20275;-64
2023/09/16 07:10:15;;;;;;;19.93;19.23;;;19.40;99.90;;;;;;5072202;28;20670;-64
2023/09/16 07:12:42;;;;;;;22.33;21.53;;;19.40;99.90;;;;;;5073859;28;20218;-64
2023/09/16 07:15:09;;;;;;;21.77;21.03;;;19.60;99.90;;;;;;5071906;28;20215;-65
2023/09/16 07:17:36;;;;;;;20.63;19.93;;;19.60;99.90;;;;;;5069115;28;20294;-64
2023/09/16 07:20:03;;;;;;;20.50;19.80;;;19.70;99.90;;;;;;5073703;28;20237;-64
2023/09/16 07:22:30;;;;;;;22.30;21.50;;;19.80;99.90;;;;;;5071689;28;20215;-64
2023/09/16 07:24:58;;;;;;;20.73;20.03;;;19.90;99.90;;;;;;5068118;28;20214;-65
2023/09/16 07:27:25;;;;;;;17.70;17.10;;;20.00;99.90;;;;;;5065610;28;20655;-64
2023/09/16 07:29:52;;;;;;;16.30;15.77;;;20.00;99.90;;;;;;5073988;28;20578;-64
2023/09/16 07:32:18;;;;;;;15.87;15.37;;;20.20;99.90;;;;;;5072396;28;20211;-64
2023/09/16 07:34:45;;;;;;;18.50;17.90;;;20.30;99.90;;;;;;5070839;28;20215;-65
2023/09/16 07:37:12;;;;;;;15.47;14.97;;;20.40;99.90;;;;;;5070797;28;20221;-64
2023/09/16 07:39:39;;;;;;;14.50;14.00;;;20.50;99.90;;;;;;5080830;28;20227;-64
2023/09/16 07:42:07;;;;;;;14.63;14.13;;;20.60;99.90;;;;;;5082365;28;20211;-65
2023/09/16 07:44:34;;;;;;;16.93;16.33;;;20.70;99.90;;;;;;5081956;28;20290;-64
2023/09/16 07:47:00;;;;;;;15.70;15.17;;;20.80;99.90;;;;;;5078798;28;20254;-65
2023/09/16 07:49:27;;;;;;;16.00;15.50;;;20.80;99.90;;;;;;5074423;28;20596;-64
2023/09/16 07:51:54;;;;;;;14.20;13.70;;;20.90;99.90;;;;;;5066113;28;20218;-64
2023/09/16 07:54:22;;;;;;;13.97;13.47;;;21.00;99.90;;;;;;5065672;28;20216;-65
2023/09/16 07:56:49;;;;;;;13.90;13.40;;;21.00;99.90;;;;;;5068923;28;20243;-64
2023/09/16 07:59:20;;;;;;;14.47;13.97;;;21.20;99.90;;;;;;5061840;28;20288;-66
2023/09/16 08:01:47;;;;;;;14.60;14.10;;;21.30;99.90;;;;;;5065143;28;20203;-64
2023/09/16 08:04:13;;;;;;;15.63;15.13;;;21.30;99.90;;;;;;5062510;28;20200;-64
2023/09/16 08:06:41;;;;;;;14.60;14.10;;;21.50;99.90;;;;;;5066517;28;20199;-65
2023/09/16 08:09:07;;;;;;;20.37;19.37;;;21.50;99.90;;;;;;5066619;28;20224;-65
2023/09/16 08:11:34;;;;;;;15.73;15.13;;;21.60;99.90;;;;;;5065217;28;20199;-64
2023/09/16 08:14:01;;;;;;;15.33;14.83;;;21.70;99.90;;;;;;5061703;28;20207;-64
2023/09/16 08:16:29;;;;;;;14.97;14.47;;;21.70;99.90;;;;;;5062986;28;20204;-65
2023/09/16 08:18:56;;;;;;;18.08;17.48;;;21.80;99.90;;;;;;5068355;28;20230;-64
2023/09/16 08:21:23;;;;;;;19.57;18.87;;;21.80;99.90;;;;;;5063979;28;20659;-63
2023/09/16 08:23:49;;;;;;;18.27;17.67;;;21.70;99.90;;;;;;5071710;28;20207;-64
2023/09/16 08:26:16;;;;;;;19.00;18.30;;;21.80;99.90;;;;;;5069492;28;20302;-64
2023/09/16 08:28:43;;;;;;;18.07;17.37;;;22.00;99.90;;;;;;5069421;28;20224;-63
2023/09/16 08:31:10;;;;;;;18.03;17.43;;;22.10;99.90;;;;;;5072334;28;20381;-63
2023/09/16 08:33:38;;;;;;;18.50;17.90;;;22.20;99.90;;;;;;5069783;28;20585;-64
2023/09/16 08:36:05;;;;;;;18.37;17.77;;;22.30;99.90;;;;;;5067362;28;20215;-64
2023/09/16 08:38:32;;;;;;;17.40;16.80;;;22.50;99.90;;;;;;5065776;28;20254;-63
2023/09/16 08:41:12;;;;;;;17.07;16.47;;;22.60;99.90;;;;;;5070061;28;20203;-63
2023/09/16 08:43:41;;;;;;;17.03;16.43;;;22.80;99.90;;;;;;5069886;28;20670;-63
2023/09/16 08:46:11;;;;;;;16.63;16.03;;;22.90;99.90;;;;;;5063100;28;20295;-64
2023/09/16 08:48:43;;;;;;;15.20;14.70;;;23.00;99.90;;;;;;5067273;28;20223;-64
2023/09/16 08:51:12;;;;;;;17.27;16.67;;;23.00;99.90;;;;;;5070890;28;20204;-63
2023/09/16 08:53:41;;;;;;;15.73;15.23;;;22.80;99.90;;;;;;5063485;28;20199;-64
2023/09/16 08:56:09;;;;;;;15.50;14.93;;;22.70;99.90;;;;;;5060191;28;20204;-65
2023/09/16 08:58:36;;;;;;;15.73;15.13;;;22.80;99.90;;;;;;5066903;28;20241;-64
2023/09/16 09:01:04;;;;;;;17.70;17.03;;;22.90;99.90;;;;;;5071618;28;20686;-65
2023/09/16 09:03:31;;;;;;;16.60;16.00;;;22.90;99.90;;;;;;5069454;28;20203;-63
2023/09/16 09:05:59;;;;;;;15.43;14.82;;;22.80;99.90;;;;;;5064396;28;20215;-63
2023/09/16 09:08:26;;;;;;;18.20;17.57;;;22.90;99.90;;;;;;5071531;28;20230;-64
2023/09/16 09:10:53;;;;;;;17.13;16.53;;;23.00;99.90;;;;;;5068911;28;20286;-64
2023/09/16 09:13:20;;;;;;;16.42;15.82;;;23.10;99.90;;;;;;5071026;28;20195;-62
2023/09/16 09:15:48;;;;;;;17.27;16.67;;;23.10;99.90;;;;;;5070974;28;20207;-63
2023/09/16 09:18:17;;;;;;;17.77;17.17;;;23.30;99.90;;;;;;5070721;28;20265;-64
2023/09/16 09:20:45;;;;;;;17.83;17.23;;;23.40;99.90;;;;;;5070653;28;20227;-64
2023/09/16 09:23:14;;;;;;;18.00;17.40;;;23.50;99.90;;;;;;5064514;28;20214;-63
2023/09/16 09:25:42;;;;;;;17.60;17.00;;;23.50;99.90;;;;;;5070328;28;20210;-63
2023/09/16 09:28:09;;;;;;;18.65;18.00;;;23.50;99.90;;;;;;5065863;28;20223;-61
2023/09/16 09:30:36;;;;;;;18.37;17.77;;;23.60;99.90;;;;;;5065024;28;20202;-62
2023/09/16 09:33:03;;;;;;;20.38;19.67;;;23.60;99.90;;;;;;5064051;28;20214;-62
2023/09/16 09:35:31;;;;;;;19.17;18.48;;;23.70;99.90;;;;;;5061219;28;20230;-63
2023/09/16 09:37:58;;;;;;;19.33;18.63;;;23.70;99.90;;;;;;5061811;28;20227;-64
2023/09/16 09:40:29;;;;;;;18.90;18.10;;;23.70;99.90;;;;;;5070777;28;20337;-63
2023/09/16 09:42:56;;;;;;;19.17;18.47;;;23.80;99.90;;;;;;5070237;28;20200;-64
2023/09/16 09:45:25;;;;;;;18.02;17.42;;;23.90;99.90;;;;;;5068643;28;20203;-65
2023/09/16 09:47:53;;;;;;;18.45;17.83;;;23.90;99.90;;;;;;5068041;28;20203;-64
2023/09/16 09:50:21;;;;;;;17.40;16.80;;;24.00;99.90;;;;;;5071458;28;20215;-63
2023/09/16 09:52:49;;;;;;;19.20;18.50;;;23.90;99.90;;;;;;5071444;28;20211;-63
2023/09/16 09:55:17;;;;;;;16.80;16.20;;;24.00;99.90;;;;;;5072075;28;20214;-62
2023/09/16 09:57:46;;;;;;;17.08;16.48;;;24.00;99.90;;;;;;5068635;28;20214;-64
2023/09/16 10:00:15;;;;;;;19.37;18.67;;;24.00;99.90;;;;;;5068130;28;20246;-63
2023/09/16 10:02:43;;;;;;;17.83;17.13;;;24.00;99.90;;;;;;5062287;28;20219;-64
2023/09/16 10:05:15;;;;;;;18.02;17.42;;;24.00;99.90;;;;;;5067776;28;20203;-64
2023/09/16 10:07:42;;;;;;;16.80;16.20;;;24.10;99.90;;;;;;5070265;28;20203;-64
2023/09/16 10:10:13;;;;;;;17.15;16.55;;;24.20;99.90;;;;;;5070565;28;20195;-63
2023/09/16 10:12:41;;;;;;;17.67;17.07;;;24.40;99.90;;;;;;5070095;28;20498;-63
2023/09/16 10:15:11;;;;;;;17.87;17.17;;;24.60;99.90;;;;;;5064891;28;20203;-63
2023/09/16 10:17:38;;;;;;;17.30;16.70;;;24.60;99.90;;;;;;5070217;28;20229;-64
2023/09/16 10:20:09;;;;;;;18.47;17.77;;;24.70;99.90;;;;;;5069858;28;20227;-64
2023/09/16 10:22:36;;;;;;;18.80;18.10;;;24.70;99.90;;;;;;5060656;28;20211;-62
2023/09/16 10:25:03;;;;;;;18.55;17.85;;;24.80;99.90;;;;;;5061337;28;20211;-63
2023/09/16 10:27:34;;;;;;;18.07;17.47;;;24.90;99.90;;;;;;5065517;28;20294;-64
2023/09/16 10:30:02;;;;;;;18.73;18.07;;;24.80;99.90;;;;;;5066292;28;20600;-63
2023/09/16 10:32:30;;;;;;;19.43;18.67;;;24.70;99.90;;;;;;5070123;28;20206;-64
2023/09/16 10:35:01;;;;;;;18.70;18.02;;;24.80;99.90;;;;;;5076303;28;20610;-64
2023/09/16 10:37:28;;;;;;;18.55;17.90;;;25.00;99.90;;;;;;5072418;28;20215;-64
2023/09/16 10:39:59;;;;;;;20.35;19.65;;;25.10;99.90;;;;;;5074453;28;20231;-63
2023/09/16 10:42:27;;;;;;;19.23;18.53;;;25.30;99.90;;;;;;5066656;28;20239;-63
2023/09/16 10:44:57;;;;;;;20.42;19.73;;;25.70;99.90;;;;;;5069731;28;20207;-64
2023/09/16 10:47:24;;;;;;;19.35;18.65;;;25.80;99.90;;;;;;5067254;28;20207;-64
2023/09/16 10:49:53;;;;;;;17.20;16.60;;;26.10;99.90;;;;;;5069999;28;20605;-64
2023/09/16 10:52:25;;;;;;;18.95;18.25;;;26.20;99.90;;;;;;5066859;28;20534;-64
2023/09/16 10:54:58;;;;;;;19.73;19.02;;;26.30;99.90;;;;;;5060722;28;20223;-64
2023/09/16 10:57:30;;;;;;;18.52;17.92;;;26.40;99.90;;;;;;5067143;28;20680;-64
2023/09/16 11:00:01;;;;;;;21.02;20.27;;;26.40;99.90;;;;;;5071854;28;20249;-64
2023/09/16 11:02:36;;;;;;;22.58;21.67;;;26.20;99.90;;;;;;5074232;28;20305;-63
2023/09/16 11:05:05;;;;;;;18.53;17.83;;;26.20;99.90;;;;;;5070364;28;20221;-64
2023/09/16 11:07:32;;;;;;;19.50;18.80;;;26.30;99.90;;;;;;5072481;28;20211;-63
2023/09/16 11:09:59;;;;;;;19.73;19.03;;;26.50;99.90;;;;;;5073563;28;20634;-63
2023/09/16 11:12:27;;;;;;;22.05;21.25;;;26.70;99.90;;;;;;5068950;28;20210;-63
2023/09/16 11:14:54;;;;;;;21.17;20.48;;;26.80;99.90;;;;;;5070948;28;20215;-64
2023/09/16 11:17:23;;;;;;;20.35;19.63;;;26.80;99.90;;;;;;5073655;28;20238;-64
2023/09/16 11:19:49;;;;;;;27.20;26.27;;;26.80;99.90;;;;;;5073611;28;20231;-64
2023/09/16 11:22:18;;;;;;;21.02;20.23;;;26.70;99.90;;;;;;5069863;28;20241;-63
2023/09/16 11:24:44;;;;;;;21.30;20.57;;;26.80;99.90;;;;;;5065244;28;20211;-62
2023/09/16 11:27:12;;;;;;;22.08;21.27;;;26.80;99.90;;;;;;5074040;28;20695;-63
2023/09/16 11:29:39;;;;;;;23.30;22.50;;;26.80;99.90;;;;;;5071257;28;20238;-64
2023/09/16 11:32:08;;;;;;;25.05;24.15;;;26.80;99.90;;;;;;5063215;28;20238;-64
2023/09/16 11:34:35;;;;;;;29.25;28.15;;;26.80;99.90;;;;;;5069966;28;20306;-64
2023/09/16 11:37:02;;;;;;;22.05;21.25;;;26.60;99.90;;;;;;5062994;28;20294;-63
2023/09/16 11:39:40;;;;;;;20.90;20.20;;;26.60;99.90;;;;;;5073152;28;20297;-64
2023/09/16 11:42:08;;;;;;;20.48;19.77;;;26.40;99.90;;;;;;5069598;28;20222;-62
2023/09/16 11:44:35;;;;;;;20.17;19.48;;;26.40;99.90;;;;;;5071531;28;20207;-63
2023/09/16 11:47:03;;;;;;;20.15;19.17;;;26.40;99.90;;;;;;5073036;28;20674;-62
2023/09/16 11:49:33;;;;;;;20.77;19.98;;;26.40;99.90;;;;;;5071338;28;20603;-62
2023/09/16 11:52:00;;;;;;;21.73;20.92;;;26.40;99.90;;;;;;5072326;28;20211;-63
2023/09/16 11:54:27;;;;;;;20.05;19.35;;;26.40;99.90;;;;;;5072589;28;20730;-64
2023/09/16 11:56:55;;;;;;;19.48;18.77;;;26.40;99.90;;;;;;5072079;28;20215;-63
2023/09/16 11:59:22;;;;;;;20.53;19.83;;;26.60;99.90;;;;;;5067306;28;20261;-62
2023/09/16 12:01:49;;;;;;;24.20;23.20;;;26.80;99.90;;;;;;5072201;28;20303;-63
2023/09/16 12:04:17;;;;;;;22.48;21.67;;;27.00;99.90;;;;;;5068836;28;20309;-62
2023/09/16 12:06:45;;;;;;;25.88;24.98;;;27.40;99.90;;;;;;5072268;28;20753;-62
2023/09/16 12:09:16;;;;;;;65.93;62.20;;;27.70;99.90;;;;;;5063968;28;20760;-63
2023/09/16 12:11:49;;;;;;;22.33;21.52;;;27.70;99.90;;;;;;5071032;28;20225;-63
2023/09/16 12:14:17;;;;;;;25.13;24.23;;;27.60;99.90;;;;;;5070914;28;20658;-64
2023/09/16 12:16:44;;;;;;;23.45;22.65;;;27.60;99.90;;;;;;5070358;28;20211;-64
2023/09/16 12:19:10;;;;;;;23.92;23.13;;;27.70;99.90;;;;;;5070344;28;20235;-63
2023/09/16 12:21:45;;;;;;;25.73;24.80;;;27.60;99.90;;;;;;5069646;28;20234;-63
2023/09/16 12:24:17;;;;;;;22.45;21.65;;;27.60;99.90;;;;;;5066755;28;20317;-63
2023/09/16 12:26:45;;;;;;;22.50;21.70;;;27.50;99.90;;;;;;5068056;28;20311;-64
2023/09/16 12:29:12;;;;;;;24.92;24.02;;;27.40;99.90;;;;;;5070299;28;20319;-63
2023/09/16 12:31:40;;;;;;;23.35;22.45;;;27.40;99.90;;;;;;5070700;28;20256;-63